Mexico Memorial Information

FAA: MYJ - ICAO: KMYJ

Mexico Memorial (Airport) Location

State Missouri
County Audrain
City Mexico
Mexico Memorial (Airport) is 3 miles east of Mexico, MO.
Latitude 39-09-27.0420N
Longitude 091-49-05.7500W
Elevation 822ft

Mexico Memorial METARs

METAR KMYJ 172135Z AUTO 20011G18KT 10SM CLR 27/15 A2992 RMK AO2
Altimeter 29.92"
Temperature 27.0°C (80.6°F)
Wind 200° at 11KT with gusts to 18KT
Clouds Skies are clear.
Visibility 10.0mi
Time observed: 2022-05-17T21:35:00Z

Mexico Memorial (Airport) Details

Status Operational
Activation April 1940
Ownership Public
Usage Public
Chart KANSAS CITY
ATC on-site No
Beacon schedule sunset-sunrise
Beacon color clear green

Mexico Memorial (Airport) Contacts

Owner CITY OF MEXICO
Owner address 300 N. COAL, MEXICO, MO 65265
Owner phone 573-581-2100
Manager RICHARD O. WALKER
Manager address 16329 PIKE RD 114, LOUISIANA, MO 63353
Manager phone 573-754-4892

Mexico Memorial Radio Frequencies

Mexico Memorial (Airport) Radio Frequencies

UNICOM N/A
Common traffic advisory frequency (CTAF) 122.9